sensor_id;sensor_type;location;lat;lon;timestamp;P1;P2;P0
76483;PMS5003;65318;-33.924;18.406;2022-12-18T00:01:38;4;4;
76483;PMS5003;65318;-33.924;18.406;2022-12-18T00:04:04;3;2;
76483;PMS5003;65318;-33.924;18.406;2022-12-18T00:06:29;4;3;
76483;PMS5003;65318;-33.924;18.406;2022-12-18T00:08:55;5;3;
76483;PMS5003;65318;-33.924;18.406;2022-12-18T00:11:21;3;3;
76483;PMS5003;65318;-33.924;18.406;2022-12-18T00:13:46;4;4;
76483;PMS5003;65318;-33.924;18.406;2022-12-18T00:16:12;4;4;
76483;PMS5003;65318;-33.924;18.406;2022-12-18T00:18:36;2;2;
76483;PMS5003;65318;-33.924;18.406;2022-12-18T00:21:04;4;4;
76483;PMS5003;65318;-33.924;18.406;2022-12-18T00:23:28;4;3;
76483;PMS5003;65318;-33.924;18.406;2022-12-18T00:25:53;4;3;
76483;PMS5003;65318;-33.924;18.406;2022-12-18T00:28:18;2;2;
76483;PMS5003;65318;-33.924;18.406;2022-12-18T00:30:44;3;3;
76483;PMS5003;65318;-33.924;18.406;2022-12-18T00:33:09;3;3;
76483;PMS5003;65318;-33.924;18.406;2022-12-18T00:35:35;6;4;
76483;PMS5003;65318;-33.924;18.406;2022-12-18T00:38:01;4;4;
76483;PMS5003;65318;-33.924;18.406;2022-12-18T00:40:26;2;2;
76483;PMS5003;65318;-33.924;18.406;2022-12-18T00:42:51;3;3;
76483;PMS5003;65318;-33.924;18.406;2022-12-18T00:45:17;3;3;
76483;PMS5003;65318;-33.924;18.406;2022-12-18T00:47:42;4;3;
76483;PMS5003;65318;-33.924;18.406;2022-12-18T00:50:09;5;5;
76483;PMS5003;65318;-33.924;18.406;2022-12-18T00:52:34;2;2;
76483;PMS5003;65318;-33.924;18.406;2022-12-18T00:54:59;5;5;
76483;PMS5003;65318;-33.924;18.406;2022-12-18T00:57:25;3;3;
76483;PMS5003;65318;-33.924;18.406;2022-12-18T00:59:50;3;2;
76483;PMS5003;65318;-33.924;18.406;2022-12-18T01:02:16;3;3;
76483;PMS5003;65318;-33.924;18.406;2022-12-18T01:04:41;2;2;
76483;PMS5003;65318;-33.924;18.406;2022-12-18T01:07:06;5;3;
76483;PMS5003;65318;-33.924;18.406;2022-12-18T01:09:32;3;3;
76483;PMS5003;65318;-33.924;18.406;2022-12-18T01:11:57;4;4;
76483;PMS5003;65318;-33.924;18.406;2022-12-18T01:14:23;4;3;
76483;PMS5003;65318;-33.924;18.406;2022-12-18T01:16:48;6;4;
76483;PMS5003;65318;-33.924;18.406;2022-12-18T01:19:14;3;3;
76483;PMS5003;65318;-33.924;18.406;2022-12-18T01:21:39;3;3;
76483;PMS5003;65318;-33.924;18.406;2022-12-18T01:24:05;6;4;
76483;PMS5003;65318;-33.924;18.406;2022-12-18T01:26:30;4;4;
76483;PMS5003;65318;-33.924;18.406;2022-12-18T01:28:56;8;6;
76483;PMS5003;65318;-33.924;18.406;2022-12-18T01:31:23;2;2;
76483;PMS5003;65318;-33.924;18.406;2022-12-18T01:33:46;3;3;
76483;PMS5003;65318;-33.924;18.406;2022-12-18T01:36:16;2;2;
76483;PMS5003;65318;-33.924;18.406;2022-12-18T01:38:38;4;3;
76483;PMS5003;65318;-33.924;18.406;2022-12-18T01:41:03;2;2;
76483;PMS5003;65318;-33.924;18.406;2022-12-18T01:45:53;3;3;
76483;PMS5003;65318;-33.924;18.406;2022-12-18T01:48:19;5;4;
76483;PMS5003;65318;-33.924;18.406;2022-12-18T01:50:45;4;3;
76483;PMS5003;65318;-33.924;18.406;2022-12-18T01:53:11;6;3;
76483;PMS5003;65318;-33.924;18.406;2022-12-18T01:55:36;3;2;
76483;PMS5003;65318;-33.924;18.406;2022-12-18T01:58:01;3;3;
76483;PMS5003;65318;-33.924;18.406;2022-12-18T02:00:27;2;2;
76483;PMS5003;65318;-33.924;18.406;2022-12-18T02:02:52;3;3;
76483;PMS5003;65318;-33.924;18.406;2022-12-18T02:05:18;3;3;
76483;PMS5003;65318;-33.924;18.406;2022-12-18T02:07:44;5;3;
76483;PMS5003;65318;-33.924;18.406;2022-12-18T02:10:10;4;4;
76483;PMS5003;65318;-33.924;18.406;2022-12-18T02:12:37;4;3;
76483;PMS5003;65318;-33.924;18.406;2022-12-18T02:15:00;4;3;
76483;PMS5003;65318;-33.924;18.406;2022-12-18T02:17:25;3;3;
76483;PMS5003;65318;-33.924;18.406;2022-12-18T02:19:55;3;3;
76483;PMS5003;65318;-33.924;18.406;2022-12-18T02:22:20;3;3;
76483;PMS5003;65318;-33.924;18.406;2022-12-18T02:24:41;3;3;
76483;PMS5003;65318;-33.924;18.406;2022-12-18T02:27:07;2;2;
76483;PMS5003;65318;-33.924;18.406;2022-12-18T02:29:32;3;3;
76483;PMS5003;65318;-33.924;18.406;2022-12-18T02:32:00;2;2;
76483;PMS5003;65318;-33.924;18.406;2022-12-18T02:34:24;5;5;
76483;PMS5003;65318;-33.924;18.406;2022-12-18T02:36:48;5;3;
76483;PMS5003;65318;-33.924;18.406;2022-12-18T02:39:13;4;3;
76483;PMS5003;65318;-33.924;18.406;2022-12-18T02:41:39;3;3;
76483;PMS5003;65318;-33.924;18.406;2022-12-18T02:44:07;3;3;
76483;PMS5003;65318;-33.924;18.406;2022-12-18T02:46:31;3;3;
76483;PMS5003;65318;-33.924;18.406;2022-12-18T02:48:57;2;2;
76483;PMS5003;65318;-33.924;18.406;2022-12-18T02:51:22;3;3;
76483;PMS5003;65318;-33.924;18.406;2022-12-18T02:53:48;3;3;
76483;PMS5003;65318;-33.924;18.406;2022-12-18T02:56:12;4;4;
76483;PMS5003;65318;-33.924;18.406;2022-12-18T02:58:47;4;4;
76483;PMS5003;65318;-33.924;18.406;2022-12-18T03:01:03;4;4;
76483;PMS5003;65318;-33.924;18.406;2022-12-18T03:03:29;4;4;
76483;PMS5003;65318;-33.924;18.406;2022-12-18T03:05:55;4;4;
76483;PMS5003;65318;-33.924;18.406;2022-12-18T03:08:20;5;4;
76483;PMS5003;65318;-33.924;18.406;2022-12-18T03:10:45;3;3;
76483;PMS5003;65318;-33.924;18.406;2022-12-18T03:13:10;4;3;
76483;PMS5003;65318;-33.924;18.406;2022-12-18T03:15:36;4;4;
76483;PMS5003;65318;-33.924;18.406;2022-12-18T03:18:02;1;1;
76483;PMS5003;65318;-33.924;18.406;2022-12-18T03:20:26;4;4;
76483;PMS5003;65318;-33.924;18.406;2022-12-18T03:22:52;4;4;
76483;PMS5003;65318;-33.924;18.406;2022-12-18T03:25:17;7;6;
76483;PMS5003;65318;-33.924;18.406;2022-12-18T03:27:43;2;2;
76483;PMS5003;65318;-33.924;18.406;2022-12-18T03:30:08;4;3;
76483;PMS5003;65318;-33.924;18.406;2022-12-18T03:32:35;3;3;
76483;PMS5003;65318;-33.924;18.406;2022-12-18T03:34:59;3;3;
76483;PMS5003;65318;-33.924;18.406;2022-12-18T03:37:24;4;4;
76483;PMS5003;65318;-33.924;18.406;2022-12-18T03:39:50;3;3;
76483;PMS5003;65318;-33.924;18.406;2022-12-18T03:42:16;4;4;
76483;PMS5003;65318;-33.924;18.406;2022-12-18T03:44:42;5;5;
76483;PMS5003;65318;-33.924;18.406;2022-12-18T03:47:07;3;3;
76483;PMS5003;65318;-33.924;18.406;2022-12-18T03:49:33;4;3;
76483;PMS5003;65318;-33.924;18.406;2022-12-18T03:51:59;3;3;
76483;PMS5003;65318;-33.924;18.406;2022-12-18T03:54:22;3;2;
76483;PMS5003;65318;-33.924;18.406;2022-12-18T03:56:49;1;1;
76483;PMS5003;65318;-33.924;18.406;2022-12-18T03:59:13;3;2;
76483;PMS5003;65318;-33.924;18.406;2022-12-18T04:01:39;4;4;
76483;PMS5003;65318;-33.924;18.406;2022-12-18T04:04:04;4;4;
76483;PMS5003;65318;-33.924;18.406;2022-12-18T04:06:30;4;4;
76483;PMS5003;65318;-33.924;18.406;2022-12-18T04:08:56;3;2;
76483;PMS5003;65318;-33.924;18.406;2022-12-18T04:11:20;6;4;
76483;PMS5003;65318;-33.924;18.406;2022-12-18T04:13:46;2;2;
76483;PMS5003;65318;-33.924;18.406;2022-12-18T04:16:12;6;4;
76483;PMS5003;65318;-33.924;18.406;2022-12-18T04:18:37;5;4;
76483;PMS5003;65318;-33.924;18.406;2022-12-18T04:21:03;4;4;
76483;PMS5003;65318;-33.924;18.406;2022-12-18T04:23:28;5;5;
76483;PMS5003;65318;-33.924;18.406;2022-12-18T04:25:53;2;2;
76483;PMS5003;65318;-33.924;18.406;2022-12-18T04:28:19;4;3;
76483;PMS5003;65318;-33.924;18.406;2022-12-18T04:30:44;3;3;
76483;PMS5003;65318;-33.924;18.406;2022-12-18T04:33:10;4;4;
76483;PMS5003;65318;-33.924;18.406;2022-12-18T04:35:35;3;3;
76483;PMS5003;65318;-33.924;18.406;2022-12-18T04:38:00;3;3;
76483;PMS5003;65318;-33.924;18.406;2022-12-18T04:40:26;4;4;
76483;PMS5003;65318;-33.924;18.406;2022-12-18T04:42:51;4;4;
76483;PMS5003;65318;-33.924;18.406;2022-12-18T04:45:17;4;3;
76483;PMS5003;65318;-33.924;18.406;2022-12-18T04:47:42;3;3;
76483;PMS5003;65318;-33.924;18.406;2022-12-18T04:50:08;3;2;
76483;PMS5003;65318;-33.924;18.406;2022-12-18T04:52:33;4;4;
76483;PMS5003;65318;-33.924;18.406;2022-12-18T04:54:58;3;3;
76483;PMS5003;65318;-33.924;18.406;2022-12-18T04:57:24;5;5;
76483;PMS5003;65318;-33.924;18.406;2022-12-18T04:59:49;3;3;
76483;PMS5003;65318;-33.924;18.406;2022-12-18T05:02:15;6;5;
76483;PMS5003;65318;-33.924;18.406;2022-12-18T05:04:40;7;6;
76483;PMS5003;65318;-33.924;18.406;2022-12-18T05:07:06;5;5;
76483;PMS5003;65318;-33.924;18.406;2022-12-18T05:09:31;6;6;
76483;PMS5003;65318;-33.924;18.406;2022-12-18T05:11:57;9;8;
76483;PMS5003;65318;-33.924;18.406;2022-12-18T05:14:22;17;14;
76483;PMS5003;65318;-33.924;18.406;2022-12-18T05:16:48;41;31;
76483;PMS5003;65318;-33.924;18.406;2022-12-18T05:19:13;41;31;
76483;PMS5003;65318;-33.924;18.406;2022-12-18T05:21:39;37;30;
76483;PMS5003;65318;-33.924;18.406;2022-12-18T05:24:05;32;23;
76483;PMS5003;65318;-33.924;18.406;2022-12-18T05:26:30;32;25;
76483;PMS5003;65318;-33.924;18.406;2022-12-18T05:28:56;31;27;
76483;PMS5003;65318;-33.924;18.406;2022-12-18T05:31:21;34;26;
76483;PMS5003;65318;-33.924;18.406;2022-12-18T05:33:46;25;23;
76483;PMS5003;65318;-33.924;18.406;2022-12-18T05:36:12;19;18;
76483;PMS5003;65318;-33.924;18.406;2022-12-18T05:38:38;14;14;
76483;PMS5003;65318;-33.924;18.406;2022-12-18T05:41:04;21;19;
76483;PMS5003;65318;-33.924;18.406;2022-12-18T05:43:29;21;19;
76483;PMS5003;65318;-33.924;18.406;2022-12-18T05:45:55;15;13;
76483;PMS5003;65318;-33.924;18.406;2022-12-18T05:48:20;13;11;
76483;PMS5003;65318;-33.924;18.406;2022-12-18T05:50:46;12;11;
76483;PMS5003;65318;-33.924;18.406;2022-12-18T05:53:12;11;9;
76483;PMS5003;65318;-33.924;18.406;2022-12-18T05:55:36;9;8;
76483;PMS5003;65318;-33.924;18.406;2022-12-18T05:58:02;7;7;
76483;PMS5003;65318;-33.924;18.406;2022-12-18T06:00:27;7;7;
76483;PMS5003;65318;-33.924;18.406;2022-12-18T06:02:52;7;6;
76483;PMS5003;65318;-33.924;18.406;2022-12-18T06:05:19;6;5;
76483;PMS5003;65318;-33.924;18.406;2022-12-18T06:07:43;7;7;
76483;PMS5003;65318;-33.924;18.406;2022-12-18T06:10:09;6;6;
76483;PMS5003;65318;-33.924;18.406;2022-12-18T06:12:34;6;5;
76483;PMS5003;65318;-33.924;18.406;2022-12-18T06:15:00;9;5;
76483;PMS5003;65318;-33.924;18.406;2022-12-18T06:17:27;9;7;
76483;PMS5003;65318;-33.924;18.406;2022-12-18T06:19:50;10;7;
76483;PMS5003;65318;-33.924;18.406;2022-12-18T06:22:16;7;6;
76483;PMS5003;65318;-33.924;18.406;2022-12-18T06:24:41;9;7;
76483;PMS5003;65318;-33.924;18.406;2022-12-18T06:27:07;7;5;
76483;PMS5003;65318;-33.924;18.406;2022-12-18T06:29:33;8;6;
76483;PMS5003;65318;-33.924;18.406;2022-12-18T06:31:58;7;7;
76483;PMS5003;65318;-33.924;18.406;2022-12-18T06:34:23;9;8;
76483;PMS5003;65318;-33.924;18.406;2022-12-18T06:36:49;6;6;
76483;PMS5003;65318;-33.924;18.406;2022-12-18T06:39:14;10;8;
76483;PMS5003;65318;-33.924;18.406;2022-12-18T06:41:40;12;7;
76483;PMS5003;65318;-33.924;18.406;2022-12-18T06:44:05;7;6;
76483;PMS5003;65318;-33.924;18.406;2022-12-18T06:46:30;9;8;
76483;PMS5003;65318;-33.924;18.406;2022-12-18T06:48:56;5;5;
76483;PMS5003;65318;-33.924;18.406;2022-12-18T06:51:22;9;9;
76483;PMS5003;65318;-33.924;18.406;2022-12-18T06:53:47;11;9;
76483;PMS5003;65318;-33.924;18.406;2022-12-18T06:56:12;6;6;
76483;PMS5003;65318;-33.924;18.406;2022-12-18T06:58:38;8;8;
76483;PMS5003;65318;-33.924;18.406;2022-12-18T07:01:04;11;9;
76483;PMS5003;65318;-33.924;18.406;2022-12-18T07:03:29;7;6;
76483;PMS5003;65318;-33.924;18.406;2022-12-18T07:05:54;7;6;
76483;PMS5003;65318;-33.924;18.406;2022-12-18T07:08:19;5;5;
76483;PMS5003;65318;-33.924;18.406;2022-12-18T07:10:45;10;8;
76483;PMS5003;65318;-33.924;18.406;2022-12-18T07:13:10;7;6;
76483;PMS5003;65318;-33.924;18.406;2022-12-18T07:15:36;11;8;
76483;PMS5003;65318;-33.924;18.406;2022-12-18T07:18:01;8;7;
76483;PMS5003;65318;-33.924;18.406;2022-12-18T07:20:27;7;7;
76483;PMS5003;65318;-33.924;18.406;2022-12-18T07:22:52;7;6;
76483;PMS5003;65318;-33.924;18.406;2022-12-18T07:25:17;11;6;
76483;PMS5003;65318;-33.924;18.406;2022-12-18T07:27:43;8;6;
76483;PMS5003;65318;-33.924;18.406;2022-12-18T07:30:09;7;6;
76483;PMS5003;65318;-33.924;18.406;2022-12-18T07:32:33;6;6;
76483;PMS5003;65318;-33.924;18.406;2022-12-18T07:34:59;7;7;
76483;PMS5003;65318;-33.924;18.406;2022-12-18T07:37:24;7;6;
76483;PMS5003;65318;-33.924;18.406;2022-12-18T07:39:49;7;6;
76483;PMS5003;65318;-33.924;18.406;2022-12-18T07:42:15;10;6;
76483;PMS5003;65318;-33.924;18.406;2022-12-18T07:44:40;7;6;
76483;PMS5003;65318;-33.924;18.406;2022-12-18T07:47:06;7;7;
76483;PMS5003;65318;-33.924;18.406;2022-12-18T07:49:31;8;8;
76483;PMS5003;65318;-33.924;18.406;2022-12-18T07:51:56;8;7;
76483;PMS5003;65318;-33.924;18.406;2022-12-18T07:54:22;8;6;
76483;PMS5003;65318;-33.924;18.406;2022-12-18T07:56:47;6;5;
76483;PMS5003;65318;-33.924;18.406;2022-12-18T07:59:12;7;6;
76483;PMS5003;65318;-33.924;18.406;2022-12-18T08:01:38;5;5;
76483;PMS5003;65318;-33.924;18.406;2022-12-18T08:04:04;12;9;
76483;PMS5003;65318;-33.924;18.406;2022-12-18T08:06:29;7;7;
76483;PMS5003;65318;-33.924;18.406;2022-12-18T08:08:55;7;7;
76483;PMS5003;65318;-33.924;18.406;2022-12-18T08:11:20;5;4;
76483;PMS5003;65318;-33.924;18.406;2022-12-18T08:13:45;7;6;
76483;PMS5003;65318;-33.924;18.406;2022-12-18T08:16:11;5;5;
76483;PMS5003;65318;-33.924;18.406;2022-12-18T08:18:37;7;7;
76483;PMS5003;65318;-33.924;18.406;2022-12-18T08:23:27;5;5;
76483;PMS5003;65318;-33.924;18.406;2022-12-18T08:25:52;6;6;
76483;PMS5003;65318;-33.924;18.406;2022-12-18T08:28:18;6;6;
76483;PMS5003;65318;-33.924;18.406;2022-12-18T08:30:43;7;6;
76483;PMS5003;65318;-33.924;18.406;2022-12-18T08:33:09;8;6;
76483;PMS5003;65318;-33.924;18.406;2022-12-18T08:35:35;6;6;
76483;PMS5003;65318;-33.924;18.406;2022-12-18T08:38:00;7;7;
76483;PMS5003;65318;-33.924;18.406;2022-12-18T08:40:25;7;6;
76483;PMS5003;65318;-33.924;18.406;2022-12-18T08:42:51;4;4;
76483;PMS5003;65318;-33.924;18.406;2022-12-18T08:45:16;4;4;
76483;PMS5003;65318;-33.924;18.406;2022-12-18T08:47:41;6;6;
76483;PMS5003;65318;-33.924;18.406;2022-12-18T08:50:08;6;5;
76483;PMS5003;65318;-33.924;18.406;2022-12-18T08:52:32;10;7;
76483;PMS5003;65318;-33.924;18.406;2022-12-18T08:54:58;7;7;
76483;PMS5003;65318;-33.924;18.406;2022-12-18T08:57:23;7;7;
76483;PMS5003;65318;-33.924;18.406;2022-12-18T08:59:48;7;7;
76483;PMS5003;65318;-33.924;18.406;2022-12-18T09:02:14;7;6;
76483;PMS5003;65318;-33.924;18.406;2022-12-18T09:04:39;9;8;
76483;PMS5003;65318;-33.924;18.406;2022-12-18T09:07:05;8;7;
76483;PMS5003;65318;-33.924;18.406;2022-12-18T09:09:30;8;8;
76483;PMS5003;65318;-33.924;18.406;2022-12-18T09:11:55;6;6;
76483;PMS5003;65318;-33.924;18.406;2022-12-18T09:14:21;8;7;
76483;PMS5003;65318;-33.924;18.406;2022-12-18T09:16:46;6;6;
76483;PMS5003;65318;-33.924;18.406;2022-12-18T09:19:12;6;5;
76483;PMS5003;65318;-33.924;18.406;2022-12-18T09:21:37;5;5;
76483;PMS5003;65318;-33.924;18.406;2022-12-18T09:24:03;5;4;
76483;PMS5003;65318;-33.924;18.406;2022-12-18T09:26:28;6;5;
76483;PMS5003;65318;-33.924;18.406;2022-12-18T09:28:54;4;4;
76483;PMS5003;65318;-33.924;18.406;2022-12-18T09:31:20;7;6;
76483;PMS5003;65318;-33.924;18.406;2022-12-18T09:33:45;7;7;
76483;PMS5003;65318;-33.924;18.406;2022-12-18T09:36:11;10;7;
76483;PMS5003;65318;-33.924;18.406;2022-12-18T09:38:36;7;6;
76483;PMS5003;65318;-33.924;18.406;2022-12-18T09:41:03;6;5;
76483;PMS5003;65318;-33.924;18.406;2022-12-18T09:43:29;6;6;
76483;PMS5003;65318;-33.924;18.406;2022-12-18T09:45:53;6;6;
76483;PMS5003;65318;-33.924;18.406;2022-12-18T09:48:19;5;5;
76483;PMS5003;65318;-33.924;18.406;2022-12-18T09:50:43;6;5;
76483;PMS5003;65318;-33.924;18.406;2022-12-18T09:53:10;8;6;
76483;PMS5003;65318;-33.924;18.406;2022-12-18T09:55:34;9;8;
76483;PMS5003;65318;-33.924;18.406;2022-12-18T09:58:00;6;6;
76483;PMS5003;65318;-33.924;18.406;2022-12-18T10:00:24;5;5;
76483;PMS5003;65318;-33.924;18.406;2022-12-18T10:02:50;6;5;
76483;PMS5003;65318;-33.924;18.406;2022-12-18T10:05:17;7;5;
76483;PMS5003;65318;-33.924;18.406;2022-12-18T10:07:43;5;5;
76483;PMS5003;65318;-33.924;18.406;2022-12-18T10:10:07;4;4;
76483;PMS5003;65318;-33.924;18.406;2022-12-18T10:12:32;7;7;
76483;PMS5003;65318;-33.924;18.406;2022-12-18T10:14:58;6;6;
76483;PMS5003;65318;-33.924;18.406;2022-12-18T10:17:24;7;7;
76483;PMS5003;65318;-33.924;18.406;2022-12-18T10:19:49;5;5;
76483;PMS5003;65318;-33.924;18.406;2022-12-18T10:22:16;9;8;
76483;PMS5003;65318;-33.924;18.406;2022-12-18T10:24:38;5;5;
76483;PMS5003;65318;-33.924;18.406;2022-12-18T10:27:08;6;5;
76483;PMS5003;65318;-33.924;18.406;2022-12-18T10:29:29;8;8;
76483;PMS5003;65318;-33.924;18.406;2022-12-18T10:31:54;8;8;
76483;PMS5003;65318;-33.924;18.406;2022-12-18T10:34:19;5;4;
76483;PMS5003;65318;-33.924;18.406;2022-12-18T10:36:45;9;7;
76483;PMS5003;65318;-33.924;18.406;2022-12-18T10:39:15;6;6;
76483;PMS5003;65318;-33.924;18.406;2022-12-18T10:41:36;8;7;
76483;PMS5003;65318;-33.924;18.406;2022-12-18T10:46:26;9;6;
76483;PMS5003;65318;-33.924;18.406;2022-12-18T10:48:53;5;5;
76483;PMS5003;65318;-33.924;18.406;2022-12-18T10:51:21;5;5;
76483;PMS5003;65318;-33.924;18.406;2022-12-18T10:53:44;8;6;
76483;PMS5003;65318;-33.924;18.406;2022-12-18T10:56:08;7;6;
76483;PMS5003;65318;-33.924;18.406;2022-12-18T10:58:34;7;7;
76483;PMS5003;65318;-33.924;18.406;2022-12-18T11:01:07;11;10;
76483;PMS5003;65318;-33.924;18.406;2022-12-18T11:03:30;6;6;
76483;PMS5003;65318;-33.924;18.406;2022-12-18T11:05:50;9;7;
76483;PMS5003;65318;-33.924;18.406;2022-12-18T11:08:20;6;5;
76483;PMS5003;65318;-33.924;18.406;2022-12-18T11:10:41;7;6;
76483;PMS5003;65318;-33.924;18.406;2022-12-18T11:13:11;7;7;
76483;PMS5003;65318;-33.924;18.406;2022-12-18T11:15:32;7;7;
76483;PMS5003;65318;-33.924;18.406;2022-12-18T11:17:57;7;7;
76483;PMS5003;65318;-33.924;18.406;2022-12-18T11:20:29;7;6;
76483;PMS5003;65318;-33.924;18.406;2022-12-18T11:25:18;7;5;
76483;PMS5003;65318;-33.924;18.406;2022-12-18T11:27:39;6;6;
76483;PMS5003;65318;-33.924;18.406;2022-12-18T11:30:08;4;4;
76483;PMS5003;65318;-33.924;18.406;2022-12-18T11:32:32;7;7;
76483;PMS5003;65318;-33.924;18.406;2022-12-18T11:34:57;5;5;
76483;PMS5003;65318;-33.924;18.406;2022-12-18T11:37:20;7;7;
76483;PMS5003;65318;-33.924;18.406;2022-12-18T11:39:49;5;5;
76483;PMS5003;65318;-33.924;18.406;2022-12-18T11:42:12;8;7;
76483;PMS5003;65318;-33.924;18.406;2022-12-18T11:44:39;9;7;
76483;PMS5003;65318;-33.924;18.406;2022-12-18T11:47:04;8;8;
76483;PMS5003;65318;-33.924;18.406;2022-12-18T11:49:29;7;7;
76483;PMS5003;65318;-33.924;18.406;2022-12-18T11:51:55;9;8;
76483;PMS5003;65318;-33.924;18.406;2022-12-18T11:54:18;9;7;
76483;PMS5003;65318;-33.924;18.406;2022-12-18T11:56:46;7;7;
76483;PMS5003;65318;-33.924;18.406;2022-12-18T11:59:13;10;7;
76483;PMS5003;65318;-33.924;18.406;2022-12-18T12:01:38;7;7;
76483;PMS5003;65318;-33.924;18.406;2022-12-18T12:06:26;10;10;
76483;PMS5003;65318;-33.924;18.406;2022-12-18T12:08:55;18;15;
76483;PMS5003;65318;-33.924;18.406;2022-12-18T12:11:18;11;10;
76483;PMS5003;65318;-33.924;18.406;2022-12-18T12:13:44;10;9;
76483;PMS5003;65318;-33.924;18.406;2022-12-18T12:16:10;10;9;
76483;PMS5003;65318;-33.924;18.406;2022-12-18T12:18:34;12;10;
76483;PMS5003;65318;-33.924;18.406;2022-12-18T12:21:00;11;10;
76483;PMS5003;65318;-33.924;18.406;2022-12-18T12:23:26;13;10;
76483;PMS5003;65318;-33.924;18.406;2022-12-18T12:25:49;10;9;
76483;PMS5003;65318;-33.924;18.406;2022-12-18T12:28:17;11;8;
76483;PMS5003;65318;-33.924;18.406;2022-12-18T12:30:41;12;9;
76483;PMS5003;65318;-33.924;18.406;2022-12-18T12:33:08;8;8;
76483;PMS5003;65318;-33.924;18.406;2022-12-18T12:35:32;11;11;
76483;PMS5003;65318;-33.924;18.406;2022-12-18T12:37:56;13;9;
76483;PMS5003;65318;-33.924;18.406;2022-12-18T12:40:20;10;8;
76483;PMS5003;65318;-33.924;18.406;2022-12-18T12:42:47;13;11;
76483;PMS5003;65318;-33.924;18.406;2022-12-18T12:45:14;9;8;
76483;PMS5003;65318;-33.924;18.406;2022-12-18T12:47:37;7;6;
76483;PMS5003;65318;-33.924;18.406;2022-12-18T12:50:02;8;8;
76483;PMS5003;65318;-33.924;18.406;2022-12-18T12:52:28;5;5;
76483;PMS5003;65318;-33.924;18.406;2022-12-18T12:54:52;10;8;
76483;PMS5003;65318;-33.924;18.406;2022-12-18T12:57:19;7;7;
76483;PMS5003;65318;-33.924;18.406;2022-12-18T12:59:46;6;6;
76483;PMS5003;65318;-33.924;18.406;2022-12-18T13:02:13;6;6;
76483;PMS5003;65318;-33.924;18.406;2022-12-18T13:04:35;8;7;
76483;PMS5003;65318;-33.924;18.406;2022-12-18T13:07:01;5;5;
76483;PMS5003;65318;-33.924;18.406;2022-12-18T13:09:26;9;8;
76483;PMS5003;65318;-33.924;18.406;2022-12-18T13:11:51;9;6;
76483;PMS5003;65318;-33.924;18.406;2022-12-18T13:14:22;6;5;
76483;PMS5003;65318;-33.924;18.406;2022-12-18T13:16:42;9;7;
76483;PMS5003;65318;-33.924;18.406;2022-12-18T13:19:18;9;9;
76483;PMS5003;65318;-33.924;18.406;2022-12-18T13:21:33;8;8;
76483;PMS5003;65318;-33.924;18.406;2022-12-18T13:24:08;5;5;
76483;PMS5003;65318;-33.924;18.406;2022-12-18T13:28:50;7;7;
76483;PMS5003;65318;-33.924;18.406;2022-12-18T13:31:14;8;7;
76483;PMS5003;65318;-33.924;18.406;2022-12-18T13:33:41;9;8;
76483;PMS5003;65318;-33.924;18.406;2022-12-18T13:36:11;6;5;
76483;PMS5003;65318;-33.924;18.406;2022-12-18T13:38:33;7;5;
76483;PMS5003;65318;-33.924;18.406;2022-12-18T13:40:56;9;6;
76483;PMS5003;65318;-33.924;18.406;2022-12-18T13:43:27;10;8;
76483;PMS5003;65318;-33.924;18.406;2022-12-18T13:45:47;11;7;
76483;PMS5003;65318;-33.924;18.406;2022-12-18T13:48:19;7;5;
76483;PMS5003;65318;-33.924;18.406;2022-12-18T13:50:37;8;7;
76483;PMS5003;65318;-33.924;18.406;2022-12-18T13:53:03;7;5;
76483;PMS5003;65318;-33.924;18.406;2022-12-18T13:55:28;6;5;
76483;PMS5003;65318;-33.924;18.406;2022-12-18T14:00:24;5;5;
76483;PMS5003;65318;-33.924;18.406;2022-12-18T14:02:44;4;4;
76483;PMS5003;65318;-33.924;18.406;2022-12-18T14:07:35;5;5;
76483;PMS5003;65318;-33.924;18.406;2022-12-18T14:10:01;4;3;
76483;PMS5003;65318;-33.924;18.406;2022-12-18T14:12:27;3;3;
76483;PMS5003;65318;-33.924;18.406;2022-12-18T14:14:52;4;3;
76483;PMS5003;65318;-33.924;18.406;2022-12-18T14:17:17;5;5;
76483;PMS5003;65318;-33.924;18.406;2022-12-18T14:19:43;9;8;
76483;PMS5003;65318;-33.924;18.406;2022-12-18T14:22:11;6;6;
76483;PMS5003;65318;-33.924;18.406;2022-12-18T14:24:33;6;6;
76483;PMS5003;65318;-33.924;18.406;2022-12-18T14:29:26;20;18;
76483;PMS5003;65318;-33.924;18.406;2022-12-18T14:34:16;14;14;
76483;PMS5003;65318;-33.924;18.406;2022-12-18T14:36:41;16;14;
76483;PMS5003;65318;-33.924;18.406;2022-12-18T14:39:11;23;23;
76483;PMS5003;65318;-33.924;18.406;2022-12-18T14:41:32;36;36;
76483;PMS5003;65318;-33.924;18.406;2022-12-18T14:44:04;67;64;
76483;PMS5003;65318;-33.924;18.406;2022-12-18T14:46:30;117;115;
76483;PMS5003;65318;-33.924;18.406;2022-12-18T14:48:49;179;174;
76483;PMS5003;65318;-33.924;18.406;2022-12-18T14:51:16;136;134;
76483;PMS5003;65318;-33.924;18.406;2022-12-18T14:53:41;204;200;
76483;PMS5003;65318;-33.924;18.406;2022-12-18T14:56:13;199;195;
76483;PMS5003;65318;-33.924;18.406;2022-12-18T14:58:32;104;101;
76483;PMS5003;65318;-33.924;18.406;2022-12-18T15:00:57;89;88;
76483;PMS5003;65318;-33.924;18.406;2022-12-18T15:03:22;71;70;
76483;PMS5003;65318;-33.924;18.406;2022-12-18T15:05:48;61;59;
76483;PMS5003;65318;-33.924;18.406;2022-12-18T15:10:45;35;35;
76483;PMS5003;65318;-33.924;18.406;2022-12-18T15:13:07;28;25;
76483;PMS5003;65318;-33.924;18.406;2022-12-18T15:17:57;19;18;
76483;PMS5003;65318;-33.924;18.406;2022-12-18T15:20:20;14;13;
76483;PMS5003;65318;-33.924;18.406;2022-12-18T15:22:47;11;11;
76483;PMS5003;65318;-33.924;18.406;2022-12-18T15:27:36;17;14;
76483;PMS5003;65318;-33.924;18.406;2022-12-18T15:32:27;14;12;
76483;PMS5003;65318;-33.924;18.406;2022-12-18T15:37:18;9;7;
76483;PMS5003;65318;-33.924;18.406;2022-12-18T15:39:43;11;10;
76483;PMS5003;65318;-33.924;18.406;2022-12-18T15:42:09;6;6;
76483;PMS5003;65318;-33.924;18.406;2022-12-18T15:44:34;9;8;
76483;PMS5003;65318;-33.924;18.406;2022-12-18T15:47:00;5;5;
76483;PMS5003;65318;-33.924;18.406;2022-12-18T15:49:25;6;5;
76483;PMS5003;65318;-33.924;18.406;2022-12-18T15:51:51;5;5;
76483;PMS5003;65318;-33.924;18.406;2022-12-18T15:54:16;6;5;
76483;PMS5003;65318;-33.924;18.406;2022-12-18T15:56:42;7;6;
76483;PMS5003;65318;-33.924;18.406;2022-12-18T15:59:08;6;4;
76483;PMS5003;65318;-33.924;18.406;2022-12-18T16:01:32;5;4;
76483;PMS5003;65318;-33.924;18.406;2022-12-18T16:03:58;5;5;
76483;PMS5003;65318;-33.924;18.406;2022-12-18T16:06:23;7;4;
76483;PMS5003;65318;-33.924;18.406;2022-12-18T16:08:49;5;5;
76483;PMS5003;65318;-33.924;18.406;2022-12-18T16:11:20;6;5;
76483;PMS5003;65318;-33.924;18.406;2022-12-18T16:13:39;7;6;
76483;PMS5003;65318;-33.924;18.406;2022-12-18T16:16:07;5;5;
76483;PMS5003;65318;-33.924;18.406;2022-12-18T16:18:30;5;4;
76483;PMS5003;65318;-33.924;18.406;2022-12-18T16:20:56;4;4;
76483;PMS5003;65318;-33.924;18.406;2022-12-18T16:23:22;4;4;
76483;PMS5003;65318;-33.924;18.406;2022-12-18T16:25:47;3;3;
76483;PMS5003;65318;-33.924;18.406;2022-12-18T16:28:12;4;3;
76483;PMS5003;65318;-33.924;18.406;2022-12-18T16:30:38;5;3;
76483;PMS5003;65318;-33.924;18.406;2022-12-18T16:33:03;5;3;
76483;PMS5003;65318;-33.924;18.406;2022-12-18T16:35:29;5;4;